Terminal Aerodrome Forecast
Issued by NWS

Home | Current Version | Previous Version | Text Only | Print | Product List | Glossary On
Versions: 1 2 3 4 5 6 7 8 9 10 11 12 13
000
FTUS46 KSGX 261100
TAFCRQ
TAF
KCRQ 261124Z 2612/2712 VRB05KT P6SM SKC
     FM262100 25007KT P6SM SKC
     FM270000 VRB05KT P6SM SKC=

USA.gov is the U.S. government's official web portal to all federal, state and local government web resources and services.